Albion, Arkansas
Current Conditions -  °F | °C
As of 12:56 AM on Sunday 23 Nov 2014 (Local Time) from KSRC Reporting Station
Overcast Overcast  
Wind Chill: 53°   Ceiling: 5500
Heat Index: 53°   Visibility: 10mi
Dew Point: 49°   Wind: 5mph
Humidity: 86%   Direction: 130°SE
Pressure: 29.85"   Gusts: NA
Location:  35.2662°N, 91.8491°W
Report Text: KSRC 230656Z AUTO 13004KT 10SM OVC055 12/09 A2985 RMK AO2 SLP113 T01170094 TSNO
Loading
Personal Weather Stations






























Interactive Weather Map New forecast layout! Learn more

10-Day Weather Forecast

Advertisements
Track Severe Weather on mobile